sensor_id;sensor_type;location;lat;lon;timestamp;P1;durP1;ratioP1;P2;durP2;ratioP2
19828;SDS011;10075;50.924;4.396;2023-12-20T00:00:29;17.50;;;3.77;;
19828;SDS011;10075;50.924;4.396;2023-12-20T00:02:56;13.80;;;3.03;;
19828;SDS011;10075;50.924;4.396;2023-12-20T00:05:23;16.40;;;3.17;;
19828;SDS011;10075;50.924;4.396;2023-12-20T00:07:50;16.70;;;2.30;;
19828;SDS011;10075;50.924;4.396;2023-12-20T00:10:17;18.17;;;2.50;;
19828;SDS011;10075;50.924;4.396;2023-12-20T00:12:44;12.10;;;2.60;;
19828;SDS011;10075;50.924;4.396;2023-12-20T00:15:11;15.83;;;3.37;;
19828;SDS011;10075;50.924;4.396;2023-12-20T00:17:39;13.67;;;2.60;;
19828;SDS011;10075;50.924;4.396;2023-12-20T00:20:06;11.57;;;2.63;;
19828;SDS011;10075;50.924;4.396;2023-12-20T00:22:34;12.73;;;3.03;;
19828;SDS011;10075;50.924;4.396;2023-12-20T00:25:01;12.57;;;3.00;;
19828;SDS011;10075;50.924;4.396;2023-12-20T00:27:28;17.67;;;3.47;;
19828;SDS011;10075;50.924;4.396;2023-12-20T00:29:54;14.73;;;2.63;;
19828;SDS011;10075;50.924;4.396;2023-12-20T00:32:21;20.53;;;2.93;;
19828;SDS011;10075;50.924;4.396;2023-12-20T00:34:50;15.77;;;2.43;;
19828;SDS011;10075;50.924;4.396;2023-12-20T00:37:16;10.13;;;3.13;;
19828;SDS011;10075;50.924;4.396;2023-12-20T00:39:43;12.93;;;2.50;;
19828;SDS011;10075;50.924;4.396;2023-12-20T00:42:10;12.00;;;2.20;;
19828;SDS011;10075;50.924;4.396;2023-12-20T00:44:37;13.87;;;2.97;;
19828;SDS011;10075;50.924;4.396;2023-12-20T00:47:04;10.03;;;2.40;;
19828;SDS011;10075;50.924;4.396;2023-12-20T00:49:31;18.93;;;3.17;;
19828;SDS011;10075;50.924;4.396;2023-12-20T00:51:59;14.37;;;3.10;;
19828;SDS011;10075;50.924;4.396;2023-12-20T00:54:26;13.57;;;3.13;;
19828;SDS011;10075;50.924;4.396;2023-12-20T00:56:53;13.97;;;3.77;;
19828;SDS011;10075;50.924;4.396;2023-12-20T00:59:20;19.40;;;3.90;;
19828;SDS011;10075;50.924;4.396;2023-12-20T01:01:47;15.10;;;3.40;;
19828;SDS011;10075;50.924;4.396;2023-12-20T01:04:14;16.93;;;3.87;;
19828;SDS011;10075;50.924;4.396;2023-12-20T01:06:41;15.87;;;3.30;;
19828;SDS011;10075;50.924;4.396;2023-12-20T01:09:09;15.10;;;3.20;;
19828;SDS011;10075;50.924;4.396;2023-12-20T01:11:36;15.93;;;3.40;;
19828;SDS011;10075;50.924;4.396;2023-12-20T01:14:03;16.93;;;3.70;;
19828;SDS011;10075;50.924;4.396;2023-12-20T01:16:30;21.20;;;3.47;;
19828;SDS011;10075;50.924;4.396;2023-12-20T01:18:56;27.17;;;4.33;;
19828;SDS011;10075;50.924;4.396;2023-12-20T01:21:23;15.87;;;4.00;;
19828;SDS011;10075;50.924;4.396;2023-12-20T01:23:50;16.47;;;3.83;;
19828;SDS011;10075;50.924;4.396;2023-12-20T01:26:18;15.70;;;3.83;;
19828;SDS011;10075;50.924;4.396;2023-12-20T01:28:45;18.93;;;4.10;;
19828;SDS011;10075;50.924;4.396;2023-12-20T01:31:12;16.00;;;3.53;;
19828;SDS011;10075;50.924;4.396;2023-12-20T01:33:39;11.23;;;3.47;;
19828;SDS011;10075;50.924;4.396;2023-12-20T01:36:06;12.93;;;3.67;;
19828;SDS011;10075;50.924;4.396;2023-12-20T01:38:33;16.03;;;3.70;;
19828;SDS011;10075;50.924;4.396;2023-12-20T01:41:00;17.27;;;3.60;;
19828;SDS011;10075;50.924;4.396;2023-12-20T01:43:29;21.00;;;4.90;;
19828;SDS011;10075;50.924;4.396;2023-12-20T01:45:56;18.30;;;5.03;;
19828;SDS011;10075;50.924;4.396;2023-12-20T01:48:23;21.93;;;4.50;;
19828;SDS011;10075;50.924;4.396;2023-12-20T01:50:51;24.17;;;4.30;;
19828;SDS011;10075;50.924;4.396;2023-12-20T01:53:19;23.27;;;3.90;;
19828;SDS011;10075;50.924;4.396;2023-12-20T01:55:50;23.10;;;4.63;;
19828;SDS011;10075;50.924;4.396;2023-12-20T01:58:18;16.57;;;3.93;;
19828;SDS011;10075;50.924;4.396;2023-12-20T02:00:47;26.50;;;4.83;;
19828;SDS011;10075;50.924;4.396;2023-12-20T02:03:14;18.07;;;4.60;;
19828;SDS011;10075;50.924;4.396;2023-12-20T02:05:42;16.70;;;4.70;;
19828;SDS011;10075;50.924;4.396;2023-12-20T02:08:11;16.23;;;4.50;;
19828;SDS011;10075;50.924;4.396;2023-12-20T02:10:38;20.27;;;5.20;;
19828;SDS011;10075;50.924;4.396;2023-12-20T02:13:07;16.47;;;4.70;;
19828;SDS011;10075;50.924;4.396;2023-12-20T02:15:33;22.70;;;4.87;;
19828;SDS011;10075;50.924;4.396;2023-12-20T02:18:03;15.53;;;4.47;;
19828;SDS011;10075;50.924;4.396;2023-12-20T02:20:31;22.67;;;4.73;;
19828;SDS011;10075;50.924;4.396;2023-12-20T02:22:59;21.00;;;4.67;;
19828;SDS011;10075;50.924;4.396;2023-12-20T02:25:26;14.63;;;4.47;;
19828;SDS011;10075;50.924;4.396;2023-12-20T02:27:53;13.57;;;3.60;;
19828;SDS011;10075;50.924;4.396;2023-12-20T02:30:20;13.50;;;3.63;;
19828;SDS011;10075;50.924;4.396;2023-12-20T02:32:47;20.27;;;3.90;;
19828;SDS011;10075;50.924;4.396;2023-12-20T02:35:16;23.33;;;3.93;;
19828;SDS011;10075;50.924;4.396;2023-12-20T02:37:42;13.00;;;3.77;;
19828;SDS011;10075;50.924;4.396;2023-12-20T02:40:11;22.83;;;4.70;;
19828;SDS011;10075;50.924;4.396;2023-12-20T02:42:38;13.77;;;3.77;;
19828;SDS011;10075;50.924;4.396;2023-12-20T02:45:05;20.93;;;4.43;;
19828;SDS011;10075;50.924;4.396;2023-12-20T02:47:33;19.43;;;4.90;;
19828;SDS011;10075;50.924;4.396;2023-12-20T02:50:00;25.57;;;4.67;;
19828;SDS011;10075;50.924;4.396;2023-12-20T02:52:27;22.77;;;4.80;;
19828;SDS011;10075;50.924;4.396;2023-12-20T02:54:55;16.80;;;3.87;;
19828;SDS011;10075;50.924;4.396;2023-12-20T02:57:23;20.10;;;4.37;;
19828;SDS011;10075;50.924;4.396;2023-12-20T02:59:50;17.40;;;4.57;;
19828;SDS011;10075;50.924;4.396;2023-12-20T03:02:17;12.80;;;4.60;;
19828;SDS011;10075;50.924;4.396;2023-12-20T03:04:44;19.47;;;5.23;;
19828;SDS011;10075;50.924;4.396;2023-12-20T03:07:10;14.60;;;4.73;;
19828;SDS011;10075;50.924;4.396;2023-12-20T03:09:38;17.00;;;4.97;;
19828;SDS011;10075;50.924;4.396;2023-12-20T03:12:05;19.33;;;4.43;;
19828;SDS011;10075;50.924;4.396;2023-12-20T03:14:33;20.23;;;4.67;;
19828;SDS011;10075;50.924;4.396;2023-12-20T03:17:00;31.20;;;5.10;;
19828;SDS011;10075;50.924;4.396;2023-12-20T03:19:27;20.40;;;4.63;;
19828;SDS011;10075;50.924;4.396;2023-12-20T03:21:54;21.00;;;5.77;;
19828;SDS011;10075;50.924;4.396;2023-12-20T03:24:21;19.77;;;5.23;;
19828;SDS011;10075;50.924;4.396;2023-12-20T03:26:48;17.13;;;4.73;;
19828;SDS011;10075;50.924;4.396;2023-12-20T03:29:14;17.97;;;4.80;;
19828;SDS011;10075;50.924;4.396;2023-12-20T03:31:43;18.60;;;4.57;;
19828;SDS011;10075;50.924;4.396;2023-12-20T03:34:10;22.50;;;5.73;;
19828;SDS011;10075;50.924;4.396;2023-12-20T03:36:37;20.53;;;4.83;;
19828;SDS011;10075;50.924;4.396;2023-12-20T03:39:05;20.53;;;5.27;;
19828;SDS011;10075;50.924;4.396;2023-12-20T03:41:32;19.63;;;5.40;;
19828;SDS011;10075;50.924;4.396;2023-12-20T03:43:59;16.17;;;5.90;;
19828;SDS011;10075;50.924;4.396;2023-12-20T03:46:26;14.67;;;4.13;;
19828;SDS011;10075;50.924;4.396;2023-12-20T03:48:54;24.30;;;4.60;;
19828;SDS011;10075;50.924;4.396;2023-12-20T03:51:21;23.67;;;4.73;;
19828;SDS011;10075;50.924;4.396;2023-12-20T03:53:48;19.63;;;4.50;;
19828;SDS011;10075;50.924;4.396;2023-12-20T03:56:14;15.80;;;5.23;;
19828;SDS011;10075;50.924;4.396;2023-12-20T03:58:41;19.47;;;4.43;;
19828;SDS011;10075;50.924;4.396;2023-12-20T04:01:09;21.10;;;4.77;;
19828;SDS011;10075;50.924;4.396;2023-12-20T04:03:36;19.70;;;3.97;;
19828;SDS011;10075;50.924;4.396;2023-12-20T04:06:05;23.77;;;5.27;;
19828;SDS011;10075;50.924;4.396;2023-12-20T04:08:32;19.27;;;4.10;;
19828;SDS011;10075;50.924;4.396;2023-12-20T04:10:59;17.57;;;4.20;;
19828;SDS011;10075;50.924;4.396;2023-12-20T04:13:26;27.23;;;4.67;;
19828;SDS011;10075;50.924;4.396;2023-12-20T04:15:52;19.83;;;3.80;;
19828;SDS011;10075;50.924;4.396;2023-12-20T04:18:19;16.20;;;3.70;;
19828;SDS011;10075;50.924;4.396;2023-12-20T04:20:46;15.17;;;3.97;;
19828;SDS011;10075;50.924;4.396;2023-12-20T04:23:13;13.77;;;3.67;;
19828;SDS011;10075;50.924;4.396;2023-12-20T04:25:40;16.10;;;3.73;;
19828;SDS011;10075;50.924;4.396;2023-12-20T04:28:07;13.30;;;4.17;;
19828;SDS011;10075;50.924;4.396;2023-12-20T04:30:34;21.63;;;4.43;;
19828;SDS011;10075;50.924;4.396;2023-12-20T04:33:01;15.37;;;3.83;;
19828;SDS011;10075;50.924;4.396;2023-12-20T04:35:28;20.30;;;4.20;;
19828;SDS011;10075;50.924;4.396;2023-12-20T04:37:55;16.17;;;3.90;;
19828;SDS011;10075;50.924;4.396;2023-12-20T04:40:23;15.53;;;3.67;;
19828;SDS011;10075;50.924;4.396;2023-12-20T04:42:50;17.10;;;4.30;;
19828;SDS011;10075;50.924;4.396;2023-12-20T04:45:17;16.70;;;3.73;;
19828;SDS011;10075;50.924;4.396;2023-12-20T04:47:44;16.07;;;3.67;;
19828;SDS011;10075;50.924;4.396;2023-12-20T04:50:12;15.87;;;3.73;;
19828;SDS011;10075;50.924;4.396;2023-12-20T04:52:39;18.90;;;5.33;;
19828;SDS011;10075;50.924;4.396;2023-12-20T04:55:06;21.97;;;4.60;;
19828;SDS011;10075;50.924;4.396;2023-12-20T04:57:35;25.23;;;4.90;;
19828;SDS011;10075;50.924;4.396;2023-12-20T05:00:02;19.10;;;4.43;;
19828;SDS011;10075;50.924;4.396;2023-12-20T05:02:30;13.33;;;3.90;;
19828;SDS011;10075;50.924;4.396;2023-12-20T05:04:57;20.80;;;5.30;;
19828;SDS011;10075;50.924;4.396;2023-12-20T05:07:23;20.63;;;4.33;;
19828;SDS011;10075;50.924;4.396;2023-12-20T05:09:50;18.03;;;4.03;;
19828;SDS011;10075;50.924;4.396;2023-12-20T05:12:17;20.70;;;4.07;;
19828;SDS011;10075;50.924;4.396;2023-12-20T05:14:45;15.43;;;3.73;;
19828;SDS011;10075;50.924;4.396;2023-12-20T05:17:12;18.27;;;4.20;;
19828;SDS011;10075;50.924;4.396;2023-12-20T05:19:39;27.67;;;4.27;;
19828;SDS011;10075;50.924;4.396;2023-12-20T05:22:06;23.33;;;4.03;;
19828;SDS011;10075;50.924;4.396;2023-12-20T05:24:33;16.67;;;3.53;;
19828;SDS011;10075;50.924;4.396;2023-12-20T05:27:00;27.27;;;3.97;;
19828;SDS011;10075;50.924;4.396;2023-12-20T05:29:26;22.63;;;4.83;;
19828;SDS011;10075;50.924;4.396;2023-12-20T05:31:55;19.00;;;4.40;;
19828;SDS011;10075;50.924;4.396;2023-12-20T05:34:22;21.70;;;4.77;;
19828;SDS011;10075;50.924;4.396;2023-12-20T05:36:49;18.90;;;4.37;;
19828;SDS011;10075;50.924;4.396;2023-12-20T05:39:16;29.77;;;5.60;;
19828;SDS011;10075;50.924;4.396;2023-12-20T05:41:43;19.53;;;4.27;;
19828;SDS011;10075;50.924;4.396;2023-12-20T05:44:10;17.97;;;5.00;;
19828;SDS011;10075;50.924;4.396;2023-12-20T05:46:37;22.17;;;4.13;;
19828;SDS011;10075;50.924;4.396;2023-12-20T05:49:06;21.83;;;5.03;;
19828;SDS011;10075;50.924;4.396;2023-12-20T05:51:33;19.30;;;4.60;;
19828;SDS011;10075;50.924;4.396;2023-12-20T05:54:00;17.70;;;4.13;;
19828;SDS011;10075;50.924;4.396;2023-12-20T05:56:26;25.80;;;4.23;;
19828;SDS011;10075;50.924;4.396;2023-12-20T05:58:53;20.97;;;5.27;;
19828;SDS011;10075;50.924;4.396;2023-12-20T06:01:20;25.97;;;4.50;;
19828;SDS011;10075;50.924;4.396;2023-12-20T06:03:47;15.80;;;4.10;;
19828;SDS011;10075;50.924;4.396;2023-12-20T06:06:15;16.40;;;3.83;;
19828;SDS011;10075;50.924;4.396;2023-12-20T06:08:42;26.07;;;5.90;;
19828;SDS011;10075;50.924;4.396;2023-12-20T06:11:10;21.67;;;4.43;;
19828;SDS011;10075;50.924;4.396;2023-12-20T06:13:36;19.57;;;3.93;;
19828;SDS011;10075;50.924;4.396;2023-12-20T06:16:04;23.00;;;4.37;;
19828;SDS011;10075;50.924;4.396;2023-12-20T06:18:32;17.63;;;3.80;;
19828;SDS011;10075;50.924;4.396;2023-12-20T06:20:59;19.90;;;3.70;;
19828;SDS011;10075;50.924;4.396;2023-12-20T06:23:27;15.53;;;3.47;;
19828;SDS011;10075;50.924;4.396;2023-12-20T06:25:54;23.03;;;3.90;;
19828;SDS011;10075;50.924;4.396;2023-12-20T06:28:21;22.50;;;4.57;;
19828;SDS011;10075;50.924;4.396;2023-12-20T06:30:48;19.77;;;3.47;;
19828;SDS011;10075;50.924;4.396;2023-12-20T06:33:17;16.87;;;4.17;;
19828;SDS011;10075;50.924;4.396;2023-12-20T06:35:46;17.13;;;3.90;;
19828;SDS011;10075;50.924;4.396;2023-12-20T06:38:13;15.97;;;3.90;;
19828;SDS011;10075;50.924;4.396;2023-12-20T06:40:41;15.33;;;3.37;;
19828;SDS011;10075;50.924;4.396;2023-12-20T06:43:08;16.23;;;3.93;;
19828;SDS011;10075;50.924;4.396;2023-12-20T06:45:35;15.27;;;3.60;;
19828;SDS011;10075;50.924;4.396;2023-12-20T06:48:02;21.17;;;3.63;;
19828;SDS011;10075;50.924;4.396;2023-12-20T06:50:30;19.33;;;4.60;;
19828;SDS011;10075;50.924;4.396;2023-12-20T06:52:57;10.43;;;3.20;;
19828;SDS011;10075;50.924;4.396;2023-12-20T06:55:24;21.97;;;4.03;;
19828;SDS011;10075;50.924;4.396;2023-12-20T06:57:52;20.23;;;3.90;;
19828;SDS011;10075;50.924;4.396;2023-12-20T07:00:19;15.83;;;3.93;;
19828;SDS011;10075;50.924;4.396;2023-12-20T07:02:46;15.73;;;3.57;;
19828;SDS011;10075;50.924;4.396;2023-12-20T07:05:15;17.83;;;3.43;;
19828;SDS011;10075;50.924;4.396;2023-12-20T07:07:44;14.00;;;4.30;;
19828;SDS011;10075;50.924;4.396;2023-12-20T07:10:11;22.57;;;4.20;;
19828;SDS011;10075;50.924;4.396;2023-12-20T07:12:38;18.73;;;3.60;;
19828;SDS011;10075;50.924;4.396;2023-12-20T07:15:07;20.57;;;3.67;;
19828;SDS011;10075;50.924;4.396;2023-12-20T07:17:34;16.07;;;4.57;;
19828;SDS011;10075;50.924;4.396;2023-12-20T07:20:01;19.37;;;3.80;;
19828;SDS011;10075;50.924;4.396;2023-12-20T07:22:29;16.77;;;3.93;;
19828;SDS011;10075;50.924;4.396;2023-12-20T07:24:57;16.80;;;3.70;;
19828;SDS011;10075;50.924;4.396;2023-12-20T07:27:24;19.20;;;4.63;;
19828;SDS011;10075;50.924;4.396;2023-12-20T07:29:51;25.03;;;4.30;;
19828;SDS011;10075;50.924;4.396;2023-12-20T07:32:19;15.30;;;3.17;;
19828;SDS011;10075;50.924;4.396;2023-12-20T07:34:46;20.00;;;3.43;;
19828;SDS011;10075;50.924;4.396;2023-12-20T07:37:13;20.37;;;3.80;;
19828;SDS011;10075;50.924;4.396;2023-12-20T07:39:40;19.83;;;3.47;;
19828;SDS011;10075;50.924;4.396;2023-12-20T07:42:07;15.50;;;3.90;;
19828;SDS011;10075;50.924;4.396;2023-12-20T07:44:35;22.47;;;3.73;;
19828;SDS011;10075;50.924;4.396;2023-12-20T07:47:01;21.33;;;4.13;;
19828;SDS011;10075;50.924;4.396;2023-12-20T07:49:30;18.07;;;3.40;;
19828;SDS011;10075;50.924;4.396;2023-12-20T07:51:57;19.57;;;3.03;;
19828;SDS011;10075;50.924;4.396;2023-12-20T07:54:24;15.70;;;3.20;;
19828;SDS011;10075;50.924;4.396;2023-12-20T07:56:50;18.07;;;3.30;;
19828;SDS011;10075;50.924;4.396;2023-12-20T07:59:17;25.37;;;3.83;;
19828;SDS011;10075;50.924;4.396;2023-12-20T08:01:44;20.87;;;4.13;;
19828;SDS011;10075;50.924;4.396;2023-12-20T08:04:11;13.20;;;3.63;;
19828;SDS011;10075;50.924;4.396;2023-12-20T08:06:39;16.10;;;2.93;;
19828;SDS011;10075;50.924;4.396;2023-12-20T08:09:06;15.43;;;4.40;;
19828;SDS011;10075;50.924;4.396;2023-12-20T08:11:33;14.73;;;3.47;;
19828;SDS011;10075;50.924;4.396;2023-12-20T08:14:00;15.90;;;3.87;;
19828;SDS011;10075;50.924;4.396;2023-12-20T08:16:27;15.83;;;3.17;;
19828;SDS011;10075;50.924;4.396;2023-12-20T08:18:54;19.53;;;3.33;;
19828;SDS011;10075;50.924;4.396;2023-12-20T08:21:21;16.47;;;3.17;;
19828;SDS011;10075;50.924;4.396;2023-12-20T08:23:49;12.23;;;3.80;;
19828;SDS011;10075;50.924;4.396;2023-12-20T08:26:18;15.40;;;2.90;;
19828;SDS011;10075;50.924;4.396;2023-12-20T08:28:47;15.33;;;3.30;;
19828;SDS011;10075;50.924;4.396;2023-12-20T08:31:14;10.50;;;3.50;;
19828;SDS011;10075;50.924;4.396;2023-12-20T08:33:43;12.17;;;3.37;;
19828;SDS011;10075;50.924;4.396;2023-12-20T08:36:10;11.93;;;2.73;;
19828;SDS011;10075;50.924;4.396;2023-12-20T08:38:37;18.77;;;3.23;;
19828;SDS011;10075;50.924;4.396;2023-12-20T08:41:06;15.33;;;3.40;;
19828;SDS011;10075;50.924;4.396;2023-12-20T08:43:33;19.53;;;3.43;;
19828;SDS011;10075;50.924;4.396;2023-12-20T08:46:04;15.50;;;3.33;;
19828;SDS011;10075;50.924;4.396;2023-12-20T08:48:31;12.97;;;2.60;;
19828;SDS011;10075;50.924;4.396;2023-12-20T08:50:58;12.83;;;3.20;;
19828;SDS011;10075;50.924;4.396;2023-12-20T08:53:26;17.60;;;3.37;;
19828;SDS011;10075;50.924;4.396;2023-12-20T08:55:52;11.73;;;3.13;;
19828;SDS011;10075;50.924;4.396;2023-12-20T08:58:21;15.47;;;3.20;;
19828;SDS011;10075;50.924;4.396;2023-12-20T09:00:48;15.07;;;3.47;;
19828;SDS011;10075;50.924;4.396;2023-12-20T09:03:15;19.37;;;3.07;;
19828;SDS011;10075;50.924;4.396;2023-12-20T09:05:41;15.13;;;3.70;;
19828;SDS011;10075;50.924;4.396;2023-12-20T09:08:08;20.90;;;3.57;;
19828;SDS011;10075;50.924;4.396;2023-12-20T09:10:35;14.87;;;3.47;;
19828;SDS011;10075;50.924;4.396;2023-12-20T09:13:03;15.13;;;3.00;;
19828;SDS011;10075;50.924;4.396;2023-12-20T09:15:31;14.73;;;3.13;;
19828;SDS011;10075;50.924;4.396;2023-12-20T09:17:59;15.83;;;2.90;;
19828;SDS011;10075;50.924;4.396;2023-12-20T09:20:26;16.87;;;3.17;;
19828;SDS011;10075;50.924;4.396;2023-12-20T09:22:53;10.47;;;2.77;;
19828;SDS011;10075;50.924;4.396;2023-12-20T09:25:19;13.40;;;2.97;;
19828;SDS011;10075;50.924;4.396;2023-12-20T09:27:48;17.57;;;3.23;;
19828;SDS011;10075;50.924;4.396;2023-12-20T09:30:15;18.57;;;3.47;;
19828;SDS011;10075;50.924;4.396;2023-12-20T09:32:43;16.67;;;3.43;;
19828;SDS011;10075;50.924;4.396;2023-12-20T09:35:11;13.30;;;3.20;;
19828;SDS011;10075;50.924;4.396;2023-12-20T09:37:39;10.67;;;3.33;;
19828;SDS011;10075;50.924;4.396;2023-12-20T09:40:10;14.50;;;3.17;;
19828;SDS011;10075;50.924;4.396;2023-12-20T09:42:40;14.33;;;3.27;;
19828;SDS011;10075;50.924;4.396;2023-12-20T09:45:24;11.93;;;2.97;;
19828;SDS011;10075;50.924;4.396;2023-12-20T09:47:53;15.67;;;3.10;;
19828;SDS011;10075;50.924;4.396;2023-12-20T09:50:20;11.90;;;2.63;;
19828;SDS011;10075;50.924;4.396;2023-12-20T09:52:49;15.93;;;3.60;;
19828;SDS011;10075;50.924;4.396;2023-12-20T09:55:17;16.77;;;3.53;;
19828;SDS011;10075;50.924;4.396;2023-12-20T09:57:45;20.63;;;3.63;;
19828;SDS011;10075;50.924;4.396;2023-12-20T10:00:12;15.60;;;3.30;;
19828;SDS011;10075;50.924;4.396;2023-12-20T10:02:41;19.77;;;3.63;;
19828;SDS011;10075;50.924;4.396;2023-12-20T10:05:16;17.50;;;2.60;;
19828;SDS011;10075;50.924;4.396;2023-12-20T10:07:45;16.67;;;3.53;;
19828;SDS011;10075;50.924;4.396;2023-12-20T10:10:12;18.63;;;3.70;;
19828;SDS011;10075;50.924;4.396;2023-12-20T10:12:39;11.63;;;3.03;;
19828;SDS011;10075;50.924;4.396;2023-12-20T10:15:06;18.57;;;4.30;;
19828;SDS011;10075;50.924;4.396;2023-12-20T10:17:35;14.63;;;2.83;;
19828;SDS011;10075;50.924;4.396;2023-12-20T10:20:03;20.60;;;3.80;;
19828;SDS011;10075;50.924;4.396;2023-12-20T10:22:36;15.57;;;4.10;;
19828;SDS011;10075;50.924;4.396;2023-12-20T10:25:04;13.23;;;3.03;;
19828;SDS011;10075;50.924;4.396;2023-12-20T10:27:32;9.10;;;2.50;;
19828;SDS011;10075;50.924;4.396;2023-12-20T10:29:59;13.63;;;3.10;;
19828;SDS011;10075;50.924;4.396;2023-12-20T10:32:26;15.33;;;3.20;;
19828;SDS011;10075;50.924;4.396;2023-12-20T10:34:54;15.73;;;3.27;;
19828;SDS011;10075;50.924;4.396;2023-12-20T10:37:21;17.70;;;2.67;;
19828;SDS011;10075;50.924;4.396;2023-12-20T10:39:51;13.60;;;2.60;;
19828;SDS011;10075;50.924;4.396;2023-12-20T10:42:21;12.27;;;3.03;;
19828;SDS011;10075;50.924;4.396;2023-12-20T10:44:49;13.00;;;3.30;;
19828;SDS011;10075;50.924;4.396;2023-12-20T10:47:16;17.30;;;3.13;;
19828;SDS011;10075;50.924;4.396;2023-12-20T10:49:44;11.73;;;2.73;;
19828;SDS011;10075;50.924;4.396;2023-12-20T10:52:11;16.00;;;3.07;;
19828;SDS011;10075;50.924;4.396;2023-12-20T10:54:39;15.23;;;3.33;;
19828;SDS011;10075;50.924;4.396;2023-12-20T10:57:08;14.63;;;3.17;;
19828;SDS011;10075;50.924;4.396;2023-12-20T10:59:36;11.03;;;2.70;;
19828;SDS011;10075;50.924;4.396;2023-12-20T11:02:04;13.20;;;3.30;;
19828;SDS011;10075;50.924;4.396;2023-12-20T11:04:35;17.40;;;3.43;;
19828;SDS011;10075;50.924;4.396;2023-12-20T11:07:07;20.57;;;3.63;;
19828;SDS011;10075;50.924;4.396;2023-12-20T11:09:43;17.97;;;3.00;;
19828;SDS011;10075;50.924;4.396;2023-12-20T11:12:16;19.70;;;3.97;;
19828;SDS011;10075;50.924;4.396;2023-12-20T11:14:50;20.27;;;3.03;;
19828;SDS011;10075;50.924;4.396;2023-12-20T11:17:19;11.53;;;2.83;;
19828;SDS011;10075;50.924;4.396;2023-12-20T11:22:33;14.07;;;3.17;;
19828;SDS011;10075;50.924;4.396;2023-12-20T11:25:02;16.13;;;3.63;;
19828;SDS011;10075;50.924;4.396;2023-12-20T11:27:33;16.20;;;3.40;;
19828;SDS011;10075;50.924;4.396;2023-12-20T11:30:00;17.67;;;4.23;;
19828;SDS011;10075;50.924;4.396;2023-12-20T11:32:31;12.73;;;3.23;;
19828;SDS011;10075;50.924;4.396;2023-12-20T11:35:01;9.63;;;2.60;;
19828;SDS011;10075;50.924;4.396;2023-12-20T11:37:42;13.53;;;3.53;;
19828;SDS011;10075;50.924;4.396;2023-12-20T11:40:13;15.43;;;3.33;;
19828;SDS011;10075;50.924;4.396;2023-12-20T11:42:43;15.23;;;3.70;;
19828;SDS011;10075;50.924;4.396;2023-12-20T11:45:11;13.23;;;3.07;;
19828;SDS011;10075;50.924;4.396;2023-12-20T11:47:42;12.93;;;3.57;;
19828;SDS011;10075;50.924;4.396;2023-12-20T11:50:11;15.13;;;2.87;;
19828;SDS011;10075;50.924;4.396;2023-12-20T11:52:38;20.67;;;3.60;;
19828;SDS011;10075;50.924;4.396;2023-12-20T11:55:05;13.13;;;3.60;;
19828;SDS011;10075;50.924;4.396;2023-12-20T11:57:33;15.33;;;3.50;;
19828;SDS011;10075;50.924;4.396;2023-12-20T12:00:02;10.47;;;2.80;;
19828;SDS011;10075;50.924;4.396;2023-12-20T12:02:29;20.47;;;3.33;;
19828;SDS011;10075;50.924;4.396;2023-12-20T12:04:56;10.80;;;2.90;;
19828;SDS011;10075;50.924;4.396;2023-12-20T12:07:24;14.73;;;3.73;;
19828;SDS011;10075;50.924;4.396;2023-12-20T12:09:51;14.73;;;3.33;;
19828;SDS011;10075;50.924;4.396;2023-12-20T12:12:18;12.13;;;3.53;;
19828;SDS011;10075;50.924;4.396;2023-12-20T12:14:45;15.63;;;2.93;;
19828;SDS011;10075;50.924;4.396;2023-12-20T12:17:14;17.37;;;3.43;;
19828;SDS011;10075;50.924;4.396;2023-12-20T12:19:42;11.70;;;2.10;;
19828;SDS011;10075;50.924;4.396;2023-12-20T12:22:10;14.43;;;3.23;;
19828;SDS011;10075;50.924;4.396;2023-12-20T12:24:39;19.80;;;3.27;;
19828;SDS011;10075;50.924;4.396;2023-12-20T12:27:06;17.20;;;2.60;;
19828;SDS011;10075;50.924;4.396;2023-12-20T12:29:33;14.83;;;3.00;;
19828;SDS011;10075;50.924;4.396;2023-12-20T12:32:00;10.27;;;2.63;;
19828;SDS011;10075;50.924;4.396;2023-12-20T12:34:32;15.07;;;2.83;;
19828;SDS011;10075;50.924;4.396;2023-12-20T12:36:59;16.07;;;2.80;;
19828;SDS011;10075;50.924;4.396;2023-12-20T12:39:26;16.37;;;3.57;;
19828;SDS011;10075;50.924;4.396;2023-12-20T12:41:54;12.87;;;3.90;;
19828;SDS011;10075;50.924;4.396;2023-12-20T12:44:22;18.43;;;3.07;;
19828;SDS011;10075;50.924;4.396;2023-12-20T12:46:50;14.80;;;3.63;;
19828;SDS011;10075;50.924;4.396;2023-12-20T12:49:18;15.53;;;3.27;;
19828;SDS011;10075;50.924;4.396;2023-12-20T12:51:47;15.63;;;3.43;;
19828;SDS011;10075;50.924;4.396;2023-12-20T12:54:14;13.10;;;3.20;;
19828;SDS011;10075;50.924;4.396;2023-12-20T12:56:43;13.47;;;3.43;;
19828;SDS011;10075;50.924;4.396;2023-12-20T12:59:12;19.70;;;4.57;;
19828;SDS011;10075;50.924;4.396;2023-12-20T13:01:39;19.87;;;4.47;;
19828;SDS011;10075;50.924;4.396;2023-12-20T13:04:06;17.47;;;3.83;;
19828;SDS011;10075;50.924;4.396;2023-12-20T13:06:35;11.03;;;3.40;;
19828;SDS011;10075;50.924;4.396;2023-12-20T13:09:04;18.20;;;3.70;;
19828;SDS011;10075;50.924;4.396;2023-12-20T13:11:31;14.53;;;3.40;;
19828;SDS011;10075;50.924;4.396;2023-12-20T13:13:58;15.20;;;3.43;;
19828;SDS011;10075;50.924;4.396;2023-12-20T13:16:25;14.77;;;3.23;;
19828;SDS011;10075;50.924;4.396;2023-12-20T13:18:52;13.43;;;2.77;;
19828;SDS011;10075;50.924;4.396;2023-12-20T13:21:19;13.23;;;2.90;;
19828;SDS011;10075;50.924;4.396;2023-12-20T13:23:46;11.77;;;3.10;;
19828;SDS011;10075;50.924;4.396;2023-12-20T13:26:14;19.93;;;3.73;;
19828;SDS011;10075;50.924;4.396;2023-12-20T13:28:42;13.70;;;3.30;;
19828;SDS011;10075;50.924;4.396;2023-12-20T13:31:09;13.77;;;3.63;;
19828;SDS011;10075;50.924;4.396;2023-12-20T13:33:36;18.43;;;4.00;;
19828;SDS011;10075;50.924;4.396;2023-12-20T13:36:03;11.73;;;3.10;;
19828;SDS011;10075;50.924;4.396;2023-12-20T13:38:31;19.57;;;4.23;;
19828;SDS011;10075;50.924;4.396;2023-12-20T13:40:58;18.73;;;3.00;;
19828;SDS011;10075;50.924;4.396;2023-12-20T13:43:26;14.50;;;3.73;;
19828;SDS011;10075;50.924;4.396;2023-12-20T13:45:53;14.20;;;3.50;;
19828;SDS011;10075;50.924;4.396;2023-12-20T13:48:21;15.10;;;3.80;;
19828;SDS011;10075;50.924;4.396;2023-12-20T13:50:48;12.30;;;3.33;;
19828;SDS011;10075;50.924;4.396;2023-12-20T13:53:15;14.53;;;3.40;;
19828;SDS011;10075;50.924;4.396;2023-12-20T13:55:42;15.50;;;3.53;;
19828;SDS011;10075;50.924;4.396;2023-12-20T13:58:09;12.97;;;3.43;;
19828;SDS011;10075;50.924;4.396;2023-12-20T14:00:37;12.60;;;3.60;;
19828;SDS011;10075;50.924;4.396;2023-12-20T14:03:04;14.57;;;3.53;;
19828;SDS011;10075;50.924;4.396;2023-12-20T14:05:32;16.43;;;3.20;;
19828;SDS011;10075;50.924;4.396;2023-12-20T14:07:59;19.00;;;3.27;;
19828;SDS011;10075;50.924;4.396;2023-12-20T14:10:26;14.50;;;3.97;;
19828;SDS011;10075;50.924;4.396;2023-12-20T14:12:53;18.77;;;4.07;;
19828;SDS011;10075;50.924;4.396;2023-12-20T14:15:20;13.20;;;3.03;;
19828;SDS011;10075;50.924;4.396;2023-12-20T14:17:51;16.73;;;3.40;;
19828;SDS011;10075;50.924;4.396;2023-12-20T14:20:19;14.63;;;3.10;;
19828;SDS011;10075;50.924;4.396;2023-12-20T14:22:46;11.53;;;3.20;;
19828;SDS011;10075;50.924;4.396;2023-12-20T14:25:14;14.50;;;3.17;;
19828;SDS011;10075;50.924;4.396;2023-12-20T14:27:41;13.43;;;2.93;;
19828;SDS011;10075;50.924;4.396;2023-12-20T14:30:09;16.70;;;3.53;;
19828;SDS011;10075;50.924;4.396;2023-12-20T14:32:39;12.30;;;4.03;;
19828;SDS011;10075;50.924;4.396;2023-12-20T14:35:07;14.60;;;3.50;;
19828;SDS011;10075;50.924;4.396;2023-12-20T14:37:35;12.87;;;3.33;;
19828;SDS011;10075;50.924;4.396;2023-12-20T14:40:04;8.43;;;2.87;;